Terminal Aerodrome Forecast
Issued by NWS

Home | Current Version | Previous Version | Text Only | Print | Product List | Glossary On
Versions: 1 2 3 4 5 6 7 8 9 10 11 12 13 14 15 16 17 18 19 20
000
FTUS45 KFGZ 250531
TAFSEZ
TAF
KSEZ 250531Z 2506/2606 18012KT P6SM SCT130
      TEMPO 2507/2511 19012G20KT
     FM251600 20018G28KT P6SM SKC
     FM260230 22011G20KT P6SM SCT250=

USA.gov is the U.S. government's official web portal to all federal, state and local government web resources and services.